Time;durP1;ratioP1;P1;durP2;ratioP2;P2;SDS_P1;SDS_P2;PMS_P1;PMS_P2;Temp;Humidity;BMP_temperature;BMP_pressure;BME280_temperature;BME280_humidity;BME280_pressure;Samples;Min_cycle;Max_cycle;Signal;HPM_P1;HPM_P2
2023/04/03 00:00:38;;;;;;;12.18;5.07;;;;;;;12.65;57.23;94066.75;5004863;28;20017;-92
2023/04/03 00:03:04;;;;;;;11.30;5.22;;;;;;;12.33;58.92;94060.38;5003587;28;20032;-93
2023/04/03 00:05:29;;;;;;;12.00;5.07;;;;;;;12.65;58.43;94066.75;5003624;28;20022;-93
2023/04/03 00:07:55;;;;;;;9.52;5.18;;;;;;;12.58;58.74;94065.25;5003364;28;20112;-92
2023/04/03 00:10:20;;;;;;;11.85;4.90;;;;;;;12.73;58.58;94066.09;5003582;28;20026;-92
2023/04/03 00:12:46;;;;;;;10.98;4.78;;;;;;;12.57;59.08;94062.94;5005789;28;20022;-92
2023/04/03 00:15:12;;;;;;;13.68;4.72;;;;;;;12.72;58.59;94059.28;5014895;28;20029;-91
2023/04/03 00:17:37;;;;;;;11.60;4.75;;;;;;;13.12;57.25;94051.75;5024040;28;20335;-92
2023/04/03 00:20:04;;;;;;;10.95;5.03;;;;;;;12.98;58.45;94050.97;5022932;28;20029;-93
2023/04/03 00:22:29;;;;;;;10.95;4.68;;;;;;;13.43;56.67;94055.69;5039425;28;20078;-92
2023/04/03 00:24:55;;;;;;;8.75;4.53;;;;;;;13.58;55.57;94049.38;5022781;28;20514;-92
2023/04/03 00:27:20;;;;;;;10.15;4.35;;;;;;;13.15;56.17;94051.16;5022638;28;20029;-93
2023/04/03 00:29:46;;;;;;;7.25;4.15;;;;;;;12.90;57.16;94049.78;5041365;28;20025;-94
2023/04/03 00:32:11;;;;;;;11.68;4.60;;;;;;;13.33;56.35;94053.25;5022987;28;20128;-93
2023/04/03 00:34:37;;;;;;;11.25;4.43;;;;;;;13.33;55.96;94054.00;5024084;28;20331;-92
2023/04/03 00:37:02;;;;;;;11.48;4.28;;;;;;;13.33;56.65;94040.84;5022806;28;20024;-91
2023/04/03 00:39:28;;;;;;;8.93;3.70;;;;;;;13.37;55.81;94044.47;5022764;28;20041;-92
2023/04/03 00:41:53;;;;;;;10.23;4.28;;;;;;;13.27;56.23;94037.56;5022497;28;20083;-93
2023/04/03 00:44:23;;;;;;;16.08;4.15;;;;;;;13.47;55.43;94042.72;5038708;28;20026;-92
2023/04/03 00:46:48;;;;;;;8.40;4.00;;;;;;;13.25;55.52;94034.41;5041509;28;20025;-93
2023/04/03 00:49:14;;;;;;;6.88;3.90;;;;;;;13.26;55.01;94027.31;5022201;28;20022;-92
2023/04/03 00:51:39;;;;;;;9.55;3.58;;;;;;;13.32;54.44;94028.78;5008524;28;20029;-92
2023/04/03 00:54:06;;;;;;;7.00;4.03;;;;;;;13.42;54.77;94033.06;5022119;28;20025;-92
2023/04/03 00:56:32;;;;;;;8.82;3.97;;;;;;;13.36;54.17;94034.22;5005842;28;20025;-93
2023/04/03 00:59:05;;;;;;;8.32;4.38;;;;;;;13.69;53.64;94032.28;5006748;28;20454;-94
2023/04/03 01:01:31;;;;;;;10.23;4.30;;;;;;;13.12;54.66;94033.34;5005911;28;20458;-93
2023/04/03 01:03:59;;;;;;;12.40;4.45;;;;;;;13.38;54.45;94032.09;5006065;28;20021;-93
2023/04/03 01:06:28;;;;;;;8.18;3.58;;;;;;;13.44;54.37;94028.31;5005795;28;20036;-93
2023/04/03 01:08:54;;;;;;;10.70;4.38;;;;;;;13.48;53.84;94023.25;5005825;28;20462;-94
2023/04/03 01:11:20;;;;;;;11.43;4.07;;;;;;;13.40;53.62;94025.47;5005750;28;20029;-93
2023/04/03 01:13:46;;;;;;;7.45;3.97;;;;;;;13.62;53.50;94021.38;5005932;28;20029;-93
2023/04/03 01:16:12;;;;;;;8.43;3.70;;;;;;;13.41;53.57;94027.03;5005638;28;20064;-93
2023/04/03 01:22:19;;;;;;;9.52;3.95;;;;;;;13.93;52.73;94018.13;5039241;28;20092;-93
2023/04/03 01:24:46;;;;;;;10.45;3.92;;;;;;;13.62;52.97;94012.72;5005356;28;20339;-93
2023/04/03 01:27:12;;;;;;;9.10;4.03;;;;;;;13.63;52.56;94014.25;5005737;28;20032;-93
2023/04/03 01:29:38;;;;;;;6.70;4.00;;;;;;;13.59;52.98;94015.94;5005197;28;20124;-93
2023/04/03 01:32:04;;;;;;;7.78;3.90;;;;;;;13.58;52.92;94020.41;5005276;28;20338;-94
2023/04/03 01:34:30;;;;;;;8.55;4.07;;;;;;;13.62;53.25;94013.47;5005336;28;20022;-92
2023/04/03 01:36:55;;;;;;;10.38;4.05;;;;;;;13.42;53.60;94012.03;5021342;28;20457;-95
2023/04/03 01:39:21;;;;;;;8.13;4.15;;;;;;;13.50;53.00;94015.84;5005205;28;20017;-93
2023/04/03 01:41:47;;;;;;;6.78;4.22;;;;;;;13.55;53.58;94013.88;5005222;28;20120;-92
2023/04/03 01:44:13;;;;;;;7.85;3.80;;;;;;;13.52;53.23;94014.47;5005257;28;20334;-93
2023/04/03 01:46:39;;;;;;;9.15;3.97;;;;;;;13.46;53.43;94020.91;5004962;28;20029;-93
2023/04/03 01:49:04;;;;;;;9.13;4.07;;;;;;;13.42;53.80;94012.03;5004955;28;20021;-93
2023/04/03 01:51:30;;;;;;;8.90;3.95;;;;;;;13.59;53.49;94008.03;5005009;28;20056;-93
2023/04/03 01:53:55;;;;;;;10.48;4.20;;;;;;;13.45;53.68;94008.03;5004250;28;20029;-94
2023/04/03 01:56:21;;;;;;;11.45;4.75;;;;;;;13.41;53.51;94013.06;5005003;28;20025;-93
2023/04/03 02:02:08;;;;;;;7.50;4.30;;;;;;;13.17;54.68;94014.06;5038554;28;20028;-93
2023/04/03 02:04:34;;;;;;;9.82;4.43;;;;;;;13.57;53.35;94006.47;5005184;28;20021;-92
2023/04/03 02:07:00;;;;;;;6.10;4.05;;;;;;;13.71;52.76;94003.06;5004909;28;20373;-93
2023/04/03 02:09:26;;;;;;;8.85;4.93;;;;;;;13.77;52.49;94007.13;5004816;28;20439;-92
2023/04/03 02:11:53;;;;;;;9.02;4.28;;;;;;;13.50;53.28;93998.19;5004946;28;20041;-93
2023/04/03 02:14:18;;;;;;;8.30;4.25;;;;;;;13.73;52.74;93997.47;5021000;28;20055;-92
2023/04/03 02:16:44;;;;;;;10.98;4.90;;;;;;;13.80;52.68;93989.97;5004449;28;20025;-92
2023/04/03 02:19:09;;;;;;;9.07;4.22;;;;;;;13.48;53.06;93984.56;5004533;28;20033;-92
2023/04/03 02:21:35;;;;;;;6.10;4.13;;;;;;;13.85;52.62;93989.84;5004597;28;20083;-93
2023/04/03 02:24:00;;;;;;;9.55;4.65;;;;;;;13.62;52.91;93981.88;5004490;28;20029;-92
2023/04/03 02:26:26;;;;;;;9.73;4.35;;;;;;;13.96;52.09;93990.41;5004276;28;20040;-94
2023/04/03 02:28:51;;;;;;;9.10;4.38;;;;;;;13.17;53.96;93979.09;5004201;28;20033;-92
2023/04/03 02:31:17;;;;;;;9.75;4.97;;;;;;;13.61;53.38;93988.22;5003885;28;20041;-93
2023/04/03 02:33:42;;;;;;;8.23;4.13;;;;;;;13.86;52.60;93988.78;5020490;28;20041;-93
2023/04/03 02:36:08;;;;;;;9.98;4.53;;;;;;;14.03;52.83;93992.63;5020479;28;20044;-94
2023/04/03 02:38:34;;;;;;;9.35;4.55;;;;;;;13.90;53.14;93987.09;5004026;28;20036;-93
2023/04/03 02:41:05;;;;;;;8.15;4.38;;;;;;;14.25;52.25;93994.50;5020376;28;20030;-93
2023/04/03 02:43:30;;;;;;;7.95;4.30;;;;;;;14.12;52.89;93993.47;5004125;28;20527;-92
2023/04/03 02:45:56;;;;;;;7.72;4.05;;;;;;;13.93;54.16;93988.34;5020206;28;20116;-92
2023/04/03 02:48:22;;;;;;;8.93;4.22;;;;;;;14.31;53.04;93990.66;5004305;28;20500;-93
2023/04/03 02:50:47;;;;;;;9.60;4.32;;;;;;;13.84;53.38;93990.91;5003570;28;20037;-93
2023/04/03 02:53:13;;;;;;;11.50;4.20;;;;;;;14.13;53.34;93990.56;5020376;28;20389;-93
2023/04/03 02:55:38;;;;;;;8.85;4.57;;;;;;;14.01;53.04;93985.03;5004186;28;20025;-93
2023/04/03 02:58:04;;;;;;;7.72;4.43;;;;;;;14.16;52.96;93988.41;5020178;28;20415;-93
2023/04/03 03:00:29;;;;;;;7.38;4.40;;;;;;;13.35;55.38;93987.94;5003791;28;20036;-93
2023/04/03 03:02:55;;;;;;;7.88;4.40;;;;;;;13.25;56.45;93987.06;5020089;28;20025;-94
2023/04/03 03:05:20;;;;;;;10.32;4.60;;;;;;;13.88;55.34;93983.97;5002820;28;20492;-93
2023/04/03 03:07:46;;;;;;;7.75;4.63;;;;;;;14.14;54.29;93980.78;5019735;28;20355;-93
2023/04/03 03:10:11;;;;;;;9.48;4.95;;;;;;;14.11;54.66;93974.25;5003697;28;20037;-93
2023/04/03 03:12:36;;;;;;;8.30;4.07;;;;;;;14.13;54.73;93966.84;5019813;28;20431;-92
2023/04/03 03:15:02;;;;;;;7.30;4.68;;;;;;;13.91;55.90;93969.44;5020132;28;20129;-93
2023/04/03 03:17:27;;;;;;;11.00;4.95;;;;;;;14.21;55.35;93956.66;5020231;28;20507;-93
2023/04/03 03:19:53;;;;;;;8.50;4.95;;;;;;;13.96;56.02;93962.22;5019808;28;20426;-94
2023/04/03 03:22:18;;;;;;;8.98;5.40;;;;;;;14.25;54.93;93962.88;5019620;28;20033;-92
2023/04/03 03:24:44;;;;;;;7.53;4.97;;;;;;;14.05;55.28;93964.91;5003837;28;20029;-92
2023/04/03 03:27:10;;;;;;;8.43;4.70;;;;;;;13.89;55.82;93961.84;5019834;28;20060;-93
2023/04/03 03:29:35;;;;;;;14.55;5.57;;;;;;;13.42;56.96;93960.16;5003458;28;20026;-93
2023/04/03 03:32:01;;;;;;;10.02;5.72;;;;;;;13.66;57.32;93961.81;5019784;28;20022;-92
2023/04/03 03:34:27;;;;;;;15.38;5.75;;;;;;;13.25;58.38;93957.38;5003452;28;20083;-93
2023/04/03 03:36:52;;;;;;;10.80;5.55;;;;;;;13.50;58.19;93961.34;5003257;28;20029;-93
2023/04/03 03:39:18;;;;;;;12.05;6.00;;;;;;;13.73;57.19;93958.78;5019580;28;20151;-92
2023/04/03 03:41:43;;;;;;;11.77;5.53;;;;;;;13.83;56.46;93953.25;5003273;28;20025;-92
2023/04/03 03:44:08;;;;;;;11.90;5.82;;;;;;;13.98;56.35;93959.25;5019515;28;20032;-92
2023/04/03 03:46:34;;;;;;;12.43;5.38;;;;;;;13.77;56.95;93961.56;5019349;28;20128;-92
2023/04/03 03:48:59;;;;;;;9.60;5.50;;;;;;;13.64;57.77;93958.72;5019742;28;20026;-93
2023/04/03 03:51:25;;;;;;;12.40;5.22;;;;;;;13.68;56.11;93967.56;5003288;28;20029;-94
2023/04/03 03:53:50;;;;;;;7.88;4.88;;;;;;;13.13;58.51;93957.88;5003233;28;20025;-93
2023/04/03 03:56:16;;;;;;;14.48;5.43;;;;;;;13.25;58.35;93960.75;5003245;28;20092;-94
2023/04/03 03:58:41;;;;;;;9.35;5.32;;;;;;;13.19;58.46;93961.16;5003332;28;20029;-93
2023/04/03 04:01:10;;;;;;;8.07;4.65;;;;;;;13.41;58.57;93963.09;5036883;28;20028;-93
2023/04/03 04:03:35;;;;;;;11.27;5.22;;;;;;;13.47;57.71;93961.94;5019837;28;20320;-94
2023/04/03 04:06:01;;;;;;;12.45;5.97;;;;;;;13.53;58.17;93967.88;5003416;28;20035;-93
2023/04/03 04:08:26;;;;;;;10.32;5.72;;;;;;;13.69;58.32;93963.84;5019234;28;20033;-92
2023/04/03 04:10:52;;;;;;;12.13;6.30;;;;;;;13.85;57.72;93960.88;5003133;28;20033;-93
2023/04/03 04:13:17;;;;;;;12.20;6.28;;;;;;;13.67;58.30;93962.59;5003538;28;20056;-93
2023/04/03 04:15:43;;;;;;;16.55;6.80;;;;;;;13.71;58.99;93960.94;5003202;28;20109;-92
2023/04/03 04:18:09;;;;;;;11.75;6.22;;;;;;;13.98;57.88;93964.53;5006636;28;20145;-91
2023/04/03 04:20:34;;;;;;;12.57;6.10;;;;;;;14.17;57.23;93961.72;5015132;28;20486;-91
2023/04/03 04:23:00;;;;;;;10.43;5.53;;;;;;;14.33;56.56;93956.09;5022803;28;20068;-90
2023/04/03 04:25:25;;;;;;;9.40;5.07;;;;;;;14.32;55.45;93962.44;5038904;28;20036;-91
2023/04/03 04:27:51;;;;;;;13.85;5.70;;;;;;;14.27;56.06;93961.50;5025676;28;20422;-91
2023/04/03 04:30:16;;;;;;;11.88;6.63;;;;;;;14.17;55.75;93959.09;5022883;28;20029;-91
2023/04/03 04:32:41;;;;;;;12.43;6.70;;;;;;;14.03;55.98;93963.66;5023925;28;20029;-91
2023/04/03 04:35:07;;;;;;;12.50;6.18;;;;;;;13.81;57.24;93958.06;5038932;28;20439;-92
2023/04/03 04:37:33;;;;;;;14.68;6.57;;;;;;;13.51;58.83;93960.28;5022996;28;20032;-92
2023/04/03 04:39:58;;;;;;;12.43;6.10;;;;;;;13.56;58.42;93964.66;5022576;28;20033;-91
2023/04/03 04:42:24;;;;;;;16.65;6.78;;;;;;;13.61;58.09;93955.88;5022412;28;20136;-92
2023/04/03 04:44:50;;;;;;;16.20;7.03;;;;;;;13.52;57.66;93951.31;5025321;28;20481;-92
2023/04/03 04:47:15;;;;;;;12.98;7.32;;;;;;;13.33;59.36;93954.03;5038901;28;20068;-91
2023/04/03 04:49:42;;;;;;;11.30;6.88;;;;;;;13.34;58.68;93952.97;5024543;28;20076;-92
2023/04/03 04:52:07;;;;;;;14.90;7.28;;;;;;;13.19;60.29;93951.41;5022170;28;20029;-93
2023/04/03 04:54:34;;;;;;;10.18;5.75;;;;;;;13.34;59.48;93958.25;5022866;28;20040;-90
2023/04/03 04:56:59;;;;;;;14.18;6.97;;;;;;;13.07;61.68;93965.06;5038605;28;20037;-91
2023/04/03 04:59:25;;;;;;;18.52;7.35;;;;;;;13.18;61.19;93964.84;5038858;28;20035;-93
2023/04/03 05:01:50;;;;;;;15.30;7.00;;;;;;;13.48;59.75;93962.72;5025073;28;20028;-91
2023/04/03 05:04:16;;;;;;;15.32;8.23;;;;;;;13.74;58.76;93970.88;5022016;28;20431;-91
2023/04/03 05:06:41;;;;;;;17.35;7.43;;;;;;;13.92;58.78;93963.91;5024026;28;20040;-91
2023/04/03 05:09:07;;;;;;;18.45;7.68;;;;;;;13.64;58.71;93960.53;5037985;28;20044;-91
2023/04/03 05:11:32;;;;;;;16.83;7.90;;;;;;;13.51;58.94;93959.50;5022500;28;20033;-91
2023/04/03 05:13:58;;;;;;;15.10;8.00;;;;;;;13.46;60.20;93968.28;5021786;28;20110;-91
2023/04/03 05:16:23;;;;;;;14.68;8.07;;;;;;;13.87;58.11;93968.50;5038138;28;20167;-92
2023/04/03 05:18:49;;;;;;;19.80;8.55;;;;;;;13.33;60.58;93967.19;5025044;28;20039;-93
2023/04/03 05:21:14;;;;;;;11.60;6.68;;;;;;;13.53;60.17;93966.00;5021836;28;20442;-92
2023/04/03 05:23:40;;;;;;;15.30;7.85;;;;;;;13.43;60.97;93974.13;5023249;28;20083;-93
2023/04/03 05:26:05;;;;;;;15.38;8.20;;;;;;;13.31;61.20;93979.09;5021657;28;20034;-92
2023/04/03 05:28:31;;;;;;;14.80;8.00;;;;;;;13.44;60.70;93973.06;5037369;28;20075;-93
2023/04/03 05:30:58;;;;;;;12.27;6.97;;;;;;;13.51;60.93;93975.31;5021844;28;20120;-91
2023/04/03 05:33:24;;;;;;;14.05;7.75;;;;;;;13.16;62.07;93975.69;5021490;28;20350;-92
2023/04/03 05:35:50;;;;;;;19.02;6.85;;;;;;;13.64;60.01;93984.22;5024360;28;20035;-91
2023/04/03 05:38:16;;;;;;;15.10;7.10;;;;;;;13.84;59.03;93985.66;5021273;28;20498;-92
2023/04/03 05:40:41;;;;;;;13.45;7.00;;;;;;;13.07;62.19;93974.81;5022985;28;20037;-91
2023/04/03 05:43:07;;;;;;;12.40;6.63;;;;;;;13.52;61.46;93982.88;5019945;28;20418;-91
2023/04/03 05:45:32;;;;;;;12.60;7.03;;;;;;;13.67;60.26;93981.81;5021569;28;20381;-90
2023/04/03 05:47:58;;;;;;;14.90;7.60;;;;;;;14.12;58.37;93985.56;5037125;28;20033;-91
2023/04/03 05:50:23;;;;;;;14.43;6.60;;;;;;;14.22;58.48;93984.56;5021076;28;20476;-91
2023/04/03 05:52:51;;;;;;;13.27;6.97;;;;;;;14.12;60.64;93985.56;5024017;28;20036;-91
2023/04/03 05:55:17;;;;;;;13.50;6.22;;;;;;;14.44;58.46;93988.28;5037238;28;20040;-91
2023/04/03 05:57:42;;;;;;;11.85;6.68;;;;;;;14.45;57.04;93985.31;5039555;28;20044;-91
2023/04/03 06:00:14;;;;;;;12.95;6.32;;;;;;;14.80;56.86;93996.09;5038273;28;20034;-94
2023/04/03 06:02:39;;;;;;;12.25;7.00;;;;;;;14.66;56.83;93992.75;5022901;28;20346;-92
2023/04/03 06:05:06;;;;;;;12.45;6.93;;;;;;;14.57;57.14;93985.56;5021088;28;20029;-93
2023/04/03 06:10:54;;;;;;;11.73;6.30;;;;;;;14.57;57.25;93987.44;5058365;28;20104;-92
2023/04/03 06:13:20;;;;;;;13.80;6.32;;;;;;;14.53;57.89;93986.44;5020958;28;20025;-92
2023/04/03 06:15:46;;;;;;;12.55;6.85;;;;;;;14.55;57.91;93987.72;5039649;28;20025;-93
2023/04/03 06:18:11;;;;;;;14.02;6.18;;;;;;;13.92;59.59;93992.88;5037285;28;20026;-93
2023/04/03 06:20:37;;;;;;;14.77;7.32;;;;;;;14.02;58.73;93989.22;5038126;28;20324;-93
2023/04/03 06:23:02;;;;;;;10.18;6.90;;;;;;;14.40;58.12;93990.72;5021098;28;20095;-92
2023/04/03 06:25:28;;;;;;;12.15;7.38;;;;;;;14.35;58.24;93996.88;5020747;28;20024;-93
2023/04/03 06:27:55;;;;;;;12.02;6.32;;;;;;;14.66;57.80;93995.38;5020924;28;20032;-94
2023/04/03 06:30:21;;;;;;;12.35;6.82;;;;;;;14.96;56.54;93991.19;5037047;28;20108;-93
2023/04/03 06:32:46;;;;;;;14.38;7.05;;;;;;;14.92;57.50;93989.47;5023144;28;20032;-93
2023/04/03 06:35:11;;;;;;;14.02;7.00;;;;;;;15.04;57.53;93989.69;5020968;28;20135;-93
2023/04/03 06:37:37;;;;;;;12.23;6.78;;;;;;;15.40;56.53;93996.66;5038113;28;20051;-93
2023/04/03 06:40:03;;;;;;;12.68;7.20;;;;;;;15.23;58.55;93988.69;5036695;28;20025;-93
2023/04/03 06:42:29;;;;;;;16.58;7.95;;;;;;;15.09;58.76;93997.47;5036755;28;20033;-93
2023/04/03 06:44:55;;;;;;;14.68;7.07;;;;;;;15.49;58.60;93996.66;5036540;28;20029;-93
2023/04/03 06:47:20;;;;;;;14.18;6.57;;;;;;;15.68;57.88;93999.03;5036932;28;20104;-93
2023/04/03 06:49:45;;;;;;;12.63;6.90;;;;;;;15.42;57.13;93996.31;5038765;28;20029;-93
2023/04/03 06:52:14;;;;;;;11.63;6.78;;;;;;;15.88;55.61;93994.25;5020279;28;20018;-93
2023/04/03 06:54:40;;;;;;;10.05;6.22;;;;;;;16.00;55.25;93998.94;5038121;28;20025;-92
2023/04/03 06:57:06;;;;;;;13.30;6.68;;;;;;;15.79;54.10;94015.34;5020430;28;20022;-92
2023/04/03 06:59:31;;;;;;;11.18;6.07;;;;;;;15.68;56.33;94008.81;5036848;28;20104;-94
2023/04/03 07:01:58;;;;;;;13.45;7.05;;;;;;;15.76;56.09;94010.69;5020147;28;20103;-93
2023/04/03 07:04:24;;;;;;;13.40;7.30;;;;;;;15.57;56.07;94003.06;5036516;28;20021;-93
2023/04/03 07:06:50;;;;;;;13.68;7.35;;;;;;;15.70;54.92;94004.00;5039636;28;20453;-93
2023/04/03 07:09:15;;;;;;;12.70;7.05;;;;;;;15.52;56.57;94008.47;5037050;28;20128;-94
2023/04/03 07:11:41;;;;;;;16.13;6.28;;;;;;;15.25;56.21;94004.97;5022002;28;20022;-94
2023/04/03 07:14:07;;;;;;;10.70;6.40;;;;;;;15.34;55.92;94005.78;5020360;28;20025;-94
2023/04/03 07:16:34;;;;;;;16.77;6.80;;;;;;;16.05;58.07;94019.13;5020871;28;20086;-93
2023/04/03 07:19:00;;;;;;;15.00;7.78;;;;;;;15.86;56.57;94016.78;5036499;28;20017;-93
2023/04/03 07:21:25;;;;;;;13.85;5.85;;;;;;;16.46;54.73;94012.59;5020440;28;20035;-94
2023/04/03 07:23:51;;;;;;;9.63;4.72;;;;;;;16.28;52.54;94021.66;5039461;28;20163;-93
2023/04/03 07:26:16;;;;;;;8.38;4.78;;;;;;;16.64;53.23;94020.50;5020232;28;20025;-94
2023/04/03 07:32:05;;;;;;;12.00;4.72;;;;;;;16.39;52.13;94026.28;5057265;28;20032;-93
2023/04/03 07:34:31;;;;;;;11.98;5.28;;;;;;;16.75;53.29;94021.72;5020512;28;20124;-94
2023/04/03 07:36:56;;;;;;;10.75;5.93;;;;;;;16.60;52.79;94041.53;5019992;28;20029;-93
2023/04/03 07:39:22;;;;;;;9.95;5.30;;;;;;;16.69;53.02;94036.22;5036263;28;20029;-92
2023/04/03 07:41:47;;;;;;;9.40;4.90;;;;;;;16.50;52.10;94034.72;5022597;28;20123;-94
2023/04/03 07:44:12;;;;;;;12.63;4.65;;;;;;;16.79;52.01;94033.25;5019781;28;20435;-93
2023/04/03 07:46:38;;;;;;;13.40;5.35;;;;;;;16.67;53.34;94035.78;5021241;28;20131;-94
2023/04/03 07:49:04;;;;;;;11.63;4.38;;;;;;;16.92;51.92;94036.81;5036406;28;20033;-94
2023/04/03 07:51:29;;;;;;;8.05;4.13;;;;;;;16.87;50.05;94039.63;5037761;28;20051;-94
2023/04/03 07:53:55;;;;;;;7.65;4.35;;;;;;;16.86;52.00;94039.94;5023641;28;20095;-94
2023/04/03 07:56:21;;;;;;;5.47;3.63;;;;;;;16.57;53.20;94038.72;5023468;28;20418;-93
2023/04/03 08:02:12;;;;;;;7.53;4.22;;;;;;;17.14;50.07;94044.88;5060824;28;20032;-93
2023/04/03 08:04:38;;;;;;;5.22;3.13;;;;;;;16.67;48.03;94049.75;5024788;28;20026;-95
2023/04/03 08:07:03;;;;;;;4.60;2.95;;;;;;;16.86;48.49;94047.88;5039752;28;20493;-94
2023/04/03 08:09:29;;;;;;;7.50;3.85;;;;;;;16.98;49.33;94045.34;5023414;28;20025;-93
2023/04/03 08:11:55;;;;;;;9.45;4.30;;;;;;;17.20;49.38;94036.44;5023433;28;20120;-95
2023/04/03 08:14:20;;;;;;;9.43;4.47;;;;;;;17.10;50.38;94052.66;5023496;28;20025;-93
2023/04/03 08:16:47;;;;;;;6.32;3.30;;;;;;;17.30;48.72;94053.84;5025970;28;20063;-94
2023/04/03 08:19:13;;;;;;;9.43;4.35;;;;;;;16.21;49.56;94051.97;5023157;28;20339;-94
2023/04/03 08:21:42;;;;;;;8.13;4.15;;;;;;;16.22;50.49;94050.09;5041065;28;20028;-93
2023/04/03 08:24:08;;;;;;;5.50;3.20;;;;;;;16.28;51.40;94050.72;5023391;28;20425;-94
2023/04/03 08:26:34;;;;;;;6.13;3.95;;;;;;;16.69;51.68;94052.09;5011840;28;20025;-92
2023/04/03 08:29:00;;;;;;;7.47;3.28;;;;;;;16.86;47.98;94053.94;5019037;28;20022;-92
2023/04/03 08:31:26;;;;;;;3.83;2.40;;;;;;;16.02;46.23;94049.63;5002811;28;20336;-92
2023/04/03 08:33:52;;;;;;;4.25;2.47;;;;;;;16.20;47.26;94037.19;5006184;28;20533;-91
2023/04/03 08:36:23;;;;;;;5.78;2.95;;;;;;;17.30;46.43;94040.59;5002752;28;20114;-91
2023/04/03 08:38:51;;;;;;;5.63;2.72;;;;;;;17.20;46.58;94041.72;5005433;28;20025;-91
2023/04/03 08:41:30;;;;;;;4.13;2.20;;;;;;;18.11;46.65;94029.28;5002466;28;20026;-91
2023/04/03 08:44:10;;;;;;;4.82;2.88;;;;;;;18.79;45.61;94040.72;5019036;28;20033;-91
2023/04/03 08:46:53;;;;;;;7.32;3.60;;;;;;;19.00;44.71;94046.00;5020195;28;20025;-92
2023/04/03 08:49:22;;;;;;;6.63;2.42;;;;;;;16.88;46.88;94045.69;5018896;28;20084;-91
2023/04/03 08:51:50;;;;;;;5.85;2.63;;;;;;;16.36;47.26;94042.78;5021273;28;20033;-91
2023/04/03 08:54:48;;;;;;;3.70;2.33;;;;;;;17.21;46.29;94045.13;5002579;28;20125;-92
2023/04/03 08:57:14;;;;;;;7.78;3.05;;;;;;;16.73;47.29;94042.44;5039356;28;20025;-91
2023/04/03 08:59:40;;;;;;;6.15;2.70;;;;;;;17.27;46.09;94048.41;5003836;28;20029;-91
2023/04/03 09:02:23;;;;;;;5.22;2.60;;;;;;;17.15;47.82;94059.66;5001723;28;20022;-93
2023/04/03 09:04:48;;;;;;;7.80;3.28;;;;;;;16.97;48.00;94054.38;5005304;28;20347;-91
2023/04/03 09:07:23;;;;;;;4.07;2.55;;;;;;;17.90;46.40;94050.44;5002266;28;20026;-91
2023/04/03 09:09:50;;;;;;;7.28;2.78;;;;;;;17.42;47.58;94049.75;5020916;28;20033;-92
2023/04/03 09:12:26;;;;;;;6.50;3.13;;;;;;;18.06;45.55;94050.66;5002535;28;20032;-92
2023/04/03 09:14:54;;;;;;;5.55;2.63;;;;;;;18.07;45.91;94052.22;5005355;28;20025;-92
2023/04/03 09:17:31;;;;;;;4.32;2.63;;;;;;;18.03;45.89;94052.09;5018355;28;20079;-91
2023/04/03 09:20:44;;;;;;;3.92;2.05;;;;;;;17.63;45.57;94047.16;5005222;28;20132;-91
2023/04/03 09:23:25;;;;;;;5.53;1.77;;;;;;;17.76;45.53;94048.00;4986883;28;20037;-91
2023/04/03 09:25:54;;;;;;;3.15;1.90;;;;;;;17.20;47.05;94051.53;5005293;28;20022;-92
2023/04/03 09:28:19;;;;;;;10.85;3.75;;;;;;;15.79;50.26;94057.63;5001929;28;20061;-91
2023/04/03 09:30:45;;;;;;;8.35;3.67;;;;;;;16.36;49.87;94055.25;5004080;28;20184;-90
2023/04/03 09:33:11;;;;;;;6.22;2.97;;;;;;;17.05;49.06;94060.78;5007758;28;20025;-90
2023/04/03 09:35:37;;;;;;;9.65;3.28;;;;;;;16.82;49.78;94055.66;5002719;28;20144;-91
2023/04/03 09:38:09;;;;;;;5.05;3.17;;;;;;;16.27;50.73;94057.09;5004765;28;20025;-90
2023/04/03 09:40:40;;;;;;;4.05;2.47;;;;;;;17.16;49.40;94055.91;5020904;28;20029;-90
2023/04/03 09:43:24;;;;;;;7.13;2.05;;;;;;;16.48;50.34;94054.59;5020795;28;20028;-92
2023/04/03 09:45:50;;;;;;;3.00;2.05;;;;;;;16.36;49.88;94052.59;5020782;28;20048;-91
2023/04/03 09:48:27;;;;;;;2.95;1.80;;;;;;;16.35;49.33;94053.66;5004777;28;20029;-91
2023/04/03 09:50:58;;;;;;;5.93;2.35;;;;;;;16.35;49.97;94051.81;5004858;28;20045;-93
2023/04/03 09:53:42;;;;;;;5.00;2.05;;;;;;;15.94;51.66;94039.81;5021136;28;20108;-92
2023/04/03 09:56:17;;;;;;;4.72;2.38;;;;;;;16.38;49.50;94056.47;5020793;28;20029;-91
2023/04/03 09:58:51;;;;;;;5.97;2.13;;;;;;;17.66;47.97;94046.50;5020887;28;20407;-91
2023/04/03 10:01:31;;;;;;;9.48;2.22;;;;;;;17.14;48.49;94042.97;5004013;28;20032;-92
2023/04/03 10:04:16;;;;;;;5.05;2.13;;;;;;;16.55;49.38;94049.59;5020777;28;20046;-92
2023/04/03 10:06:46;;;;;;;6.57;2.90;;;;;;;15.82;50.71;94046.44;5020809;28;20435;-92
2023/04/03 10:12:33;;;;;;;5.05;2.20;;;;;;;17.25;48.03;94059.31;5038221;28;20152;-91
2023/04/03 10:15:00;;;;;;;5.38;2.10;;;;;;;17.01;49.48;94049.28;5003909;28;20036;-92
2023/04/03 10:17:57;;;;;;;6.72;2.50;;;;;;;17.95;47.23;94044.94;5004459;28;20091;-91
2023/04/03 10:20:33;;;;;;;6.13;2.13;;;;;;;18.25;46.66;94038.84;5004253;28;20025;-93
2023/04/03 10:23:20;;;;;;;5.30;2.35;;;;;;;18.17;47.51;94021.91;5004394;28;20060;-91
2023/04/03 10:26:19;;;;;;;4.03;2.00;;;;;;;18.44;45.91;94027.78;5038701;28;20036;-91
2023/04/03 10:29:16;;;;;;;5.95;2.67;;;;;;;18.43;46.10;94026.22;5022862;28;20025;-92
2023/04/03 10:31:53;;;;;;;7.00;2.40;;;;;;;18.28;46.70;94033.66;5022265;28;20029;-92
2023/04/03 10:34:28;;;;;;;3.85;2.13;;;;;;;16.68;49.17;94027.50;5020496;28;20060;-93
2023/04/03 10:37:19;;;;;;;7.85;2.60;;;;;;;16.04;50.86;94033.44;5023684;28;20035;-92
2023/04/03 10:39:51;;;;;;;6.13;2.42;;;;;;;15.74;52.42;94030.56;5039812;28;20028;-92
2023/04/03 10:42:38;;;;;;;3.65;2.13;;;;;;;16.64;50.48;94031.09;5036792;28;20032;-91
2023/04/03 10:45:29;;;;;;;8.30;3.08;;;;;;;16.34;50.38;94036.25;5023446;28;20513;-93
2023/04/03 10:48:05;;;;;;;8.80;2.70;;;;;;;16.96;49.22;94029.03;5023589;28;20025;-91
2023/04/03 10:50:40;;;;;;;5.45;2.75;;;;;;;18.43;46.88;94021.69;5023475;28;20032;-92
2023/04/03 10:53:28;;;;;;;9.48;2.47;;;;;;;19.13;45.74;94022.16;5036843;28;20029;-92
2023/04/03 10:56:03;;;;;;;3.33;1.98;;;;;;;18.89;45.87;94013.00;5039857;28;20433;-92
2023/04/03 11:08:39;;;;;;;7.32;2.45;;;;;;;17.65;48.09;94003.38;5037262;28;20039;-91
2023/04/03 11:11:17;;;;;;;9.45;3.13;;;;;;;17.47;47.33;94004.53;5016471;28;20022;-93
2023/04/03 11:14:08;;;;;;;7.95;2.70;;;;;;;17.51;48.97;93998.28;5018223;28;20057;-92
2023/04/03 11:16:40;;;;;;;6.03;2.88;;;;;;;17.23;48.09;94000.63;5000967;28;20025;-92
2023/04/03 11:19:21;;;;;;;5.93;2.85;;;;;;;17.12;48.45;93992.25;5000432;28;20026;-93
2023/04/03 11:22:09;;;;;;;3.67;2.30;;;;;;;17.45;48.14;93982.91;5002901;28;20024;-92
2023/04/03 11:24:38;;;;;;;4.10;2.35;;;;;;;18.04;47.05;93991.91;5033634;28;20026;-90
2023/04/03 11:27:05;;;;;;;4.65;2.60;;;;;;;17.74;48.02;93992.72;5035087;28;20040;-92
2023/04/03 11:29:39;;;;;;;4.32;2.70;;;;;;;17.97;46.99;93989.75;5019775;28;20175;-91
2023/04/03 11:32:23;;;;;;;4.63;2.50;;;;;;;17.82;47.74;93977.84;5019519;28;20435;-91
2023/04/03 11:34:51;;;;;;;5.97;2.50;;;;;;;19.04;45.65;93975.22;5056173;28;20388;-92
2023/04/03 11:37:44;;;;;;;4.65;2.38;;;;;;;20.01;44.82;93979.28;5019299;28;20162;-91
2023/04/03 11:40:17;;;;;;;6.65;2.60;;;;;;;18.29;48.44;93971.59;5036002;28;20048;-92
2023/04/03 11:43:03;;;;;;;8.20;2.83;;;;;;;18.13;46.20;93983.88;5055298;28;20021;-91
2023/04/03 11:45:36;;;;;;;6.85;3.20;;;;;;;17.63;47.51;93978.28;5019258;28;20052;-92
2023/04/03 11:48:06;;;;;;;;;;;;;;;17.66;48.27;93978.44;5020332;28;20078;-92
2023/04/03 11:50:34;;;;;;;13.60;2.88;;;;;;;17.02;48.69;93969.56;5019733;28;19916;-93
2023/04/03 11:53:10;;;;;;;7.13;2.78;;;;;;;17.21;48.35;93977.09;5056704;28;20320;-92
2023/04/03 11:55:51;;;;;;;10.07;3.20;;;;;;;17.47;49.34;93984.16;5036553;28;20053;-91
2023/04/03 11:58:24;;;;;;;10.75;3.53;;;;;;;17.12;49.32;93975.59;5035834;28;20017;-92
2023/04/03 12:00:50;;;;;;;3.97;2.67;;;;;;;17.10;47.42;93975.91;5038248;28;20104;-92
2023/04/03 12:03:25;;;;;;;9.45;2.92;;;;;;;18.38;47.35;93971.53;5056546;28;20052;-92
2023/04/03 12:06:06;;;;;;;10.68;2.60;;;;;;;17.76;47.24;93964.03;5038822;28;20435;-92